Time;durP1;ratioP1;P1;durP2;ratioP2;P2;SDS_P1;SDS_P2;PMS_P1;PMS_P2;Temp;Humidity;BMP_temperature;BMP_pressure;BME280_temperature;BME280_humidity;BME280_pressure;Samples;Min_cycle;Max_cycle;Signal;HPM_P1;HPM_P2
2023/05/30 04:22:32;;;;;;;2.45;1.45;;;;;;;13.36;88.50;100639.47;5089540;28;20332;-69
2023/05/30 04:24:58;;;;;;;5.90;2.35;;;;;;;13.39;88.66;100648.00;5088340;28;20032;-69
2023/05/30 04:27:24;;;;;;;2.60;1.67;;;;;;;13.43;87.76;100638.59;5088165;28;20040;-68
2023/05/30 04:29:50;;;;;;;4.05;2.22;;;;;;;13.48;87.47;100640.72;5087867;28;20113;-69
2023/05/30 04:32:16;;;;;;;3.05;1.98;;;;;;;13.51;86.42;100646.53;5088188;28;20035;-69
2023/05/30 04:34:43;;;;;;;3.85;1.70;;;;;;;13.47;87.20;100647.91;5088206;28;20032;-69
2023/05/30 04:37:11;;;;;;;3.33;1.85;;;;;;;13.54;86.95;100656.03;5089221;28;20032;-69
2023/05/30 04:39:38;;;;;;;3.30;1.77;;;;;;;13.55;86.86;100658.53;5087692;28;20043;-68
2023/05/30 04:42:07;;;;;;;4.95;2.72;;;;;;;13.53;86.40;100665.91;5087770;28;20040;-68
2023/05/30 04:44:37;;;;;;;6.07;3.78;;;;;;;13.65;86.46;100662.78;5088416;28;20040;-68
2023/05/30 04:47:05;;;;;;;4.82;2.42;;;;;;;13.63;86.52;100660.31;5088976;28;20032;-68
2023/05/30 04:49:30;;;;;;;4.50;2.50;;;;;;;13.66;87.06;100653.75;5088955;28;20423;-70
2023/05/30 04:51:56;;;;;;;4.18;2.88;;;;;;;13.73;86.67;100658.19;5087916;28;20028;-71
2023/05/30 04:54:22;;;;;;;3.53;2.13;;;;;;;13.75;86.40;100666.03;5087435;28;20036;-71
2023/05/30 04:56:47;;;;;;;5.10;2.35;;;;;;;13.78;86.09;100663.81;5087605;28;20513;-64
2023/05/30 04:59:15;;;;;;;3.28;2.00;;;;;;;13.87;85.88;100674.44;5087161;28;20058;-64
2023/05/30 05:01:41;;;;;;;3.53;1.83;;;;;;;13.85;85.64;100675.47;5088841;28;20040;-64
2023/05/30 05:04:06;;;;;;;4.65;1.92;;;;;;;13.91;85.79;100676.56;5087422;28;20033;-63
2023/05/30 05:06:32;;;;;;;4.03;1.80;;;;;;;13.94;85.59;100681.53;5088943;28;20386;-61
2023/05/30 05:08:57;;;;;;;3.22;1.63;;;;;;;13.94;85.66;100683.38;5088539;28;20040;-62
2023/05/30 05:11:22;;;;;;;5.95;1.98;;;;;;;14.00;85.79;100686.16;5088569;28;20404;-64
2023/05/30 05:13:48;;;;;;;2.63;1.52;;;;;;;14.07;85.63;100688.94;5088611;28;20042;-63
2023/05/30 05:16:13;;;;;;;2.40;1.55;;;;;;;14.07;85.14;100688.94;5088521;28;20032;-61
2023/05/30 05:18:39;;;;;;;3.17;1.48;;;;;;;13.99;85.30;100689.84;5088258;28;20443;-63
2023/05/30 05:21:06;;;;;;;3.47;1.52;;;;;;;14.04;85.96;100683.97;5088338;28;20119;-60
2023/05/30 05:23:32;;;;;;;3.33;1.90;;;;;;;13.99;85.35;100683.69;5088495;28;20043;-61
2023/05/30 05:25:57;;;;;;;4.88;2.20;;;;;;;14.08;84.92;100691.44;5088293;28;20040;-61
2023/05/30 05:28:22;;;;;;;5.35;1.92;;;;;;;14.09;85.37;100689.59;5088036;28;20119;-64
2023/05/30 05:30:48;;;;;;;4.75;2.35;;;;;;;14.19;84.42;100695.50;5088299;28;20067;-60
2023/05/30 05:33:15;;;;;;;4.30;1.92;;;;;;;14.18;84.83;100696.50;5078665;28;20048;-58
2023/05/30 05:35:41;;;;;;;3.15;2.05;;;;;;;14.22;84.38;100689.78;5074690;28;20087;-60
2023/05/30 05:38:06;;;;;;;6.80;1.92;;;;;;;14.34;84.32;100696.31;5074651;28;20393;-60
2023/05/30 05:40:31;;;;;;;5.90;2.40;;;;;;;14.42;83.42;100695.38;5074202;28;20127;-63
2023/05/30 05:42:57;;;;;;;3.55;2.30;;;;;;;14.34;83.86;100695.47;5074551;28;20044;-60
2023/05/30 05:45:22;;;;;;;3.03;1.80;;;;;;;14.39;83.72;100693.88;5074742;28;20067;-61
2023/05/30 05:47:47;;;;;;;4.05;1.83;;;;;;;14.42;83.64;100697.25;5074154;28;20045;-59
2023/05/30 05:50:13;;;;;;;6.55;1.92;;;;;;;14.57;84.14;100706.09;5074224;28;20048;-61
2023/05/30 05:52:38;;;;;;;3.58;1.80;;;;;;;14.72;83.36;100696.16;5074345;28;20078;-60
2023/05/30 05:55:04;;;;;;;4.35;2.10;;;;;;;14.81;82.84;100696.91;5074364;28;20417;-60
2023/05/30 05:57:29;;;;;;;4.43;1.77;;;;;;;14.96;82.41;100702.22;5072884;28;20066;-64
2023/05/30 05:59:55;;;;;;;4.55;2.17;;;;;;;15.12;79.97;100701.94;5073943;28;20123;-62
2023/05/30 06:02:20;;;;;;;2.80;1.80;;;;;;;15.04;79.29;100696.72;5074086;28;20121;-61
2023/05/30 06:04:47;;;;;;;3.05;1.73;;;;;;;15.10;78.92;100698.63;5074242;28;20036;-62
2023/05/30 06:07:13;;;;;;;3.25;2.00;;;;;;;15.05;79.24;100701.03;5074110;28;20078;-61
2023/05/30 06:09:38;;;;;;;4.05;2.20;;;;;;;14.93;79.93;100701.56;5073749;28;20036;-62
2023/05/30 06:12:05;;;;;;;5.65;1.60;;;;;;;15.01;79.47;100705.16;5074050;28;20033;-60
2023/05/30 06:14:31;;;;;;;5.37;2.17;;;;;;;15.07;79.51;100704.38;5074073;28;20040;-60
2023/05/30 06:16:56;;;;;;;7.90;2.33;;;;;;;15.06;79.40;100702.69;5074001;28;20304;-61
2023/05/30 06:19:22;;;;;;;3.38;1.88;;;;;;;15.15;79.88;100702.41;5072431;28;20503;-62
2023/05/30 06:21:47;;;;;;;2.53;1.27;;;;;;;15.16;79.80;100712.09;5073752;28;20040;-62
2023/05/30 06:24:13;;;;;;;5.60;2.00;;;;;;;15.28;79.03;100715.09;5073905;28;20032;-62
2023/05/30 06:26:38;;;;;;;3.00;1.75;;;;;;;15.37;77.38;100710.44;5073644;28;20485;-61
2023/05/30 06:29:04;;;;;;;3.10;2.08;;;;;;;15.43;76.02;100713.16;5073383;28;20047;-58
2023/05/30 06:31:29;;;;;;;4.13;2.15;;;;;;;15.60;74.81;100716.41;5073629;28;20032;-58
2023/05/30 06:33:54;;;;;;;2.78;1.60;;;;;;;15.68;74.35;100720.84;5073649;28;20504;-59
2023/05/30 06:36:20;;;;;;;4.50;1.70;;;;;;;15.61;74.69;100718.06;5073421;28;20119;-61
2023/05/30 06:38:45;;;;;;;3.50;1.98;;;;;;;15.68;75.17;100718.97;5073193;28;20378;-61
2023/05/30 06:41:11;;;;;;;3.80;1.52;;;;;;;15.66;74.69;100721.03;5073342;28;20044;-60
2023/05/30 06:43:36;;;;;;;2.70;1.70;;;;;;;15.82;73.94;100725.28;5072948;28;20115;-63
2023/05/30 06:46:02;;;;;;;4.35;2.10;;;;;;;15.82;75.11;100722.59;5072871;28;20478;-60
2023/05/30 06:48:27;;;;;;;5.03;1.85;;;;;;;15.92;75.43;100725.78;5073004;28;20053;-60
2023/05/30 06:50:53;;;;;;;2.95;1.73;;;;;;;16.04;74.18;100726.06;5073261;28;20120;-62
2023/05/30 06:53:18;;;;;;;4.15;1.80;;;;;;;16.14;73.19;100728.38;5073146;28;20041;-61
2023/05/30 06:55:44;;;;;;;4.45;2.05;;;;;;;16.30;72.38;100725.38;5074092;28;20045;-63
2023/05/30 06:58:09;;;;;;;2.83;1.70;;;;;;;16.19;70.40;100728.63;5093339;28;20043;-63
2023/05/30 07:00:35;;;;;;;4.75;2.15;;;;;;;16.34;69.09;100723.94;5074425;28;20405;-63
2023/05/30 07:03:00;;;;;;;3.92;1.58;;;;;;;16.40;69.55;100725.84;5093324;28;20047;-61
2023/05/30 07:05:26;;;;;;;4.72;1.90;;;;;;;16.46;69.75;100719.66;5093162;28;20173;-59
2023/05/30 07:07:52;;;;;;;5.30;2.00;;;;;;;16.57;68.91;100720.13;5093219;28;20097;-61
2023/05/30 07:10:17;;;;;;;4.70;1.95;;;;;;;16.77;67.75;100715.69;5092738;28;20111;-61
2023/05/30 07:12:43;;;;;;;3.67;1.48;;;;;;;16.88;65.63;100723.13;5093166;28;20141;-60
2023/05/30 07:15:09;;;;;;;3.40;1.70;;;;;;;16.83;65.63;100725.63;5092993;28;20039;-59
2023/05/30 07:17:34;;;;;;;2.40;1.63;;;;;;;16.94;65.06;100716.94;5091701;28;20048;-62
2023/05/30 07:20:00;;;;;;;3.35;1.83;;;;;;;17.05;65.47;100719.06;5092651;28;20032;-60
2023/05/30 07:22:25;;;;;;;4.10;2.20;;;;;;;16.82;64.85;100715.88;5092836;28;20032;-61
2023/05/30 07:24:50;;;;;;;3.63;2.05;;;;;;;16.89;65.03;100719.44;5092784;28;20489;-62
2023/05/30 07:27:16;;;;;;;3.75;1.38;;;;;;;16.94;65.33;100714.25;5092785;28;20028;-59
2023/05/30 07:29:41;;;;;;;5.13;1.63;;;;;;;16.99;65.41;100710.97;5092587;28;20538;-61
2023/05/30 07:32:07;;;;;;;3.95;1.90;;;;;;;17.23;65.36;100709.56;5092758;28;20032;-61
2023/05/30 07:34:32;;;;;;;4.65;1.90;;;;;;;17.26;63.45;100714.53;5092743;28;20449;-62
2023/05/30 07:36:57;;;;;;;2.47;1.63;;;;;;;17.37;62.06;100716.59;5092644;28;20062;-59
2023/05/30 07:39:23;;;;;;;2.58;1.60;;;;;;;17.59;61.19;100717.22;5092224;28;20040;-60
2023/05/30 07:41:48;;;;;;;2.63;1.70;;;;;;;17.73;60.77;100721.59;5092680;28;20036;-59
2023/05/30 07:44:14;;;;;;;4.07;1.73;;;;;;;17.85;59.51;100713.72;5092672;28;20118;-59
2023/05/30 07:46:40;;;;;;;3.47;1.80;;;;;;;18.01;59.42;100718.66;5092433;28;20113;-59
2023/05/30 07:49:05;;;;;;;2.42;1.42;;;;;;;18.07;60.33;100714.31;5092188;28;20043;-61
2023/05/30 07:51:31;;;;;;;3.53;1.67;;;;;;;18.00;60.59;100713.50;5092345;28;20028;-62
2023/05/30 07:53:56;;;;;;;3.08;1.95;;;;;;;18.09;58.68;100712.22;5092375;28;20486;-63
2023/05/30 07:56:22;;;;;;;3.33;1.85;;;;;;;18.02;57.02;100709.53;5092052;28;20035;-60
2023/05/30 07:58:47;;;;;;;2.17;1.42;;;;;;;18.20;58.46;100706.19;5090818;28;20059;-60
2023/05/30 08:01:13;;;;;;;3.88;1.90;;;;;;;18.32;58.55;100706.34;5092350;28;20036;-61
2023/05/30 08:03:38;;;;;;;2.20;1.67;;;;;;;18.08;58.80;100705.19;5092352;28;20084;-63
2023/05/30 08:06:04;;;;;;;1.85;1.42;;;;;;;18.30;58.19;100703.84;5092198;28;20484;-63
2023/05/30 08:08:29;;;;;;;5.03;1.42;;;;;;;18.58;56.08;100703.56;5091909;28;20078;-62
2023/05/30 08:10:55;;;;;;;2.95;1.48;;;;;;;18.80;53.69;100700.56;5092163;28;20532;-62
2023/05/30 08:13:25;;;;;;;4.03;1.60;;;;;;;18.82;54.01;100702.00;5092311;28;20040;-60
2023/05/30 08:15:51;;;;;;;3.65;1.50;;;;;;;18.92;51.86;100704.25;5092080;28;20119;-63
2023/05/30 08:18:17;;;;;;;3.85;1.58;;;;;;;18.97;51.43;100704.38;5091912;28;20107;-60
2023/05/30 08:20:43;;;;;;;4.78;1.63;;;;;;;19.05;51.42;100697.94;5091906;28;20438;-61
2023/05/30 08:23:08;;;;;;;2.42;1.40;;;;;;;19.15;49.55;100704.47;5092026;28;20161;-63
2023/05/30 08:25:35;;;;;;;2.53;1.45;;;;;;;19.00;49.45;100698.56;5091926;28;20484;-61
2023/05/30 08:28:01;;;;;;;1.70;1.40;;;;;;;18.97;50.23;100701.69;5092082;28;20117;-62
2023/05/30 08:30:27;;;;;;;3.88;1.50;;;;;;;19.21;49.98;100698.22;5091568;28;20040;-62
2023/05/30 08:32:53;;;;;;;2.53;1.40;;;;;;;18.98;50.06;100685.31;5091998;28;20043;-62
2023/05/30 08:35:19;;;;;;;3.50;1.83;;;;;;;19.39;49.36;100696.63;5091886;28;20093;-57
2023/05/30 08:37:44;;;;;;;2.97;1.70;;;;;;;19.53;48.99;100698.16;5088498;28;20079;-63
2023/05/30 08:40:12;;;;;;;1.92;1.27;;;;;;;19.66;48.79;100691.84;5071381;28;20079;-61
2023/05/30 08:42:37;;;;;;;;;;;;;;;19.80;47.33;100696.06;5072182;28;20036;-62
2023/05/30 08:45:04;;;;;;;3.42;1.80;;;;;;;19.78;47.05;100695.47;5070621;28;19914;-60
2023/05/30 08:47:31;;;;;;;3.03;2.17;;;;;;;19.85;46.20;100692.72;5071581;28;20040;-62
2023/05/30 08:49:58;;;;;;;2.67;1.70;;;;;;;19.75;47.17;100687.81;5071209;28;20044;-63
2023/05/30 08:52:28;;;;;;;2.42;1.50;;;;;;;20.09;47.37;100688.31;5071518;28;20482;-60
2023/05/30 08:55:03;;;;;;;2.28;1.65;;;;;;;19.95;46.31;100693.00;5071653;28;20033;-62
2023/05/30 08:57:39;;;;;;;4.10;1.50;;;;;;;20.19;46.37;100686.72;5071657;28;20040;-60
2023/05/30 09:00:09;;;;;;;2.53;1.60;;;;;;;20.25;46.53;100687.69;5071357;28;20036;-60
2023/05/30 09:02:36;;;;;;;2.45;1.63;;;;;;;20.49;45.79;100692.22;5071498;28;20031;-62
2023/05/30 09:05:03;;;;;;;2.47;1.40;;;;;;;20.25;45.65;100682.28;5071450;28;20501;-60
2023/05/30 09:07:29;;;;;;;3.38;1.55;;;;;;;20.57;45.48;100685.66;5072212;28;20047;-62
2023/05/30 09:09:56;;;;;;;2.13;1.13;;;;;;;20.74;45.30;100666.91;5074974;28;20064;-60
2023/05/30 09:12:22;;;;;;;2.97;1.33;;;;;;;21.00;45.52;100673.84;5075164;28;20036;-61
2023/05/30 09:14:47;;;;;;;2.53;1.80;;;;;;;21.27;44.76;100668.81;5075091;28;20041;-58
2023/05/30 09:17:12;;;;;;;3.20;1.52;;;;;;;21.19;44.28;100670.00;5075035;28;20040;-62
2023/05/30 09:19:39;;;;;;;2.85;1.45;;;;;;;21.21;43.35;100667.03;5074616;28;20040;-60
2023/05/30 09:22:05;;;;;;;1.98;1.50;;;;;;;21.17;44.18;100672.09;5074981;28;20067;-62
2023/05/30 09:25:10;;;;;;;2.70;1.77;;;;;;;21.57;43.23;100674.97;5074878;28;20051;-60
2023/05/30 09:27:36;;;;;;;3.38;1.55;;;;;;;21.89;42.85;100678.16;5074375;28;20383;-60
2023/05/30 09:30:09;;;;;;;2.42;1.50;;;;;;;22.27;41.89;100681.44;5074489;28;20039;-61
2023/05/30 09:32:36;;;;;;;3.78;1.83;;;;;;;22.51;41.28;100682.19;5074638;28;20120;-60
2023/05/30 09:35:09;;;;;;;2.20;1.42;;;;;;;22.42;41.55;100681.75;5074709;28;20565;-58
2023/05/30 09:37:40;;;;;;;2.83;1.50;;;;;;;22.28;41.78;100683.09;5074648;28;20112;-59
2023/05/30 09:40:07;;;;;;;4.38;1.67;;;;;;;22.48;42.97;100684.31;5074388;28;20032;-59
2023/05/30 09:42:56;;;;;;;2.30;1.42;;;;;;;22.29;42.30;100676.59;5074602;28;20055;-62
2023/05/30 09:45:23;;;;;;;3.15;1.90;;;;;;;22.54;41.54;100679.81;5068880;28;20044;-62
2023/05/30 09:47:50;;;;;;;2.20;1.35;;;;;;;22.92;41.25;100668.34;5074542;28;20068;-61
2023/05/30 09:50:18;;;;;;;3.05;1.63;;;;;;;23.18;40.60;100675.03;5074076;28;20036;-61
2023/05/30 09:52:45;;;;;;;2.72;1.50;;;;;;;23.48;40.21;100687.50;5074417;28;20101;-60
2023/05/30 09:55:14;;;;;;;3.70;1.63;;;;;;;23.55;40.70;100680.81;5074672;28;20110;-62
2023/05/30 09:57:40;;;;;;;1.63;1.20;;;;;;;23.59;39.68;100669.44;5074430;28;20378;-61
2023/05/30 10:00:15;;;;;;;2.90;1.47;;;;;;;23.78;39.49;100674.38;5074109;28;20041;-58
2023/05/30 10:02:52;;;;;;;4.45;1.63;;;;;;;23.61;38.83;100667.31;5074321;28;20340;-60
2023/05/30 10:05:19;;;;;;;3.60;2.20;;;;;;;23.88;38.15;100673.72;5073888;28;20115;-62
2023/05/30 10:07:47;;;;;;;3.65;1.52;;;;;;;24.31;38.07;100672.06;5074188;28;20040;-58
2023/05/30 10:10:13;;;;;;;;;;;;;;;24.30;37.69;100667.72;5074249;28;20032;-62
2023/05/30 10:12:40;;;;;;;5.45;1.80;;;;;;;24.44;37.67;100660.00;5074085;28;19923;-60
2023/05/30 10:15:08;;;;;;;2.45;1.60;;;;;;;24.62;37.25;100668.66;5074093;28;20044;-60
2023/05/30 10:17:35;;;;;;;;;;;;;;;24.91;37.23;100657.53;5074301;28;20040;-60
2023/05/30 10:20:04;;;;;;;3.08;1.40;;;;;;;25.24;37.18;100658.38;5073428;28;19923;-60
2023/05/30 10:22:31;;;;;;;3.67;1.58;;;;;;;25.35;35.36;100654.63;5073874;28;20040;-60
2023/05/30 10:24:59;;;;;;;;;;;;;;;25.49;36.36;100658.56;5074291;28;20037;-63
2023/05/30 10:27:30;;;;;;;2.42;1.55;;;;;;;25.72;35.37;100654.63;5073791;28;19916;-60
2023/05/30 10:30:03;;;;;;;3.30;1.67;;;;;;;25.79;33.91;100648.97;5073456;28;20044;-60
2023/05/30 10:32:32;;;;;;;2.85;1.40;;;;;;;25.77;34.92;100651.97;5073537;28;20051;-61
2023/05/30 10:35:30;;;;;;;3.85;1.60;;;;;;;26.17;34.28;100651.34;5073501;28;20051;-61
2023/05/30 10:37:57;;;;;;;3.05;1.35;;;;;;;25.83;35.28;100647.38;5050698;28;20052;-62
2023/05/30 10:40:50;;;;;;;2.85;1.60;;;;;;;26.00;34.90;100650.72;5073211;28;20086;-61
2023/05/30 10:43:23;;;;;;;3.90;1.63;;;;;;;26.24;33.65;100651.91;5073478;28;20040;-63
2023/05/30 10:46:06;;;;;;;3.97;1.60;;;;;;;26.25;34.08;100644.53;5073419;28;20090;-63
2023/05/30 10:48:53;;;;;;;2.97;1.52;;;;;;;26.53;34.23;100637.81;5073057;28;20029;-60
2023/05/30 10:51:19;;;;;;;2.65;1.50;;;;;;;26.91;33.33;100628.31;5073197;28;20037;-61
2023/05/30 10:53:46;;;;;;;2.58;1.40;;;;;;;26.90;32.96;100626.69;5073143;28;20592;-62
2023/05/30 10:56:40;;;;;;;3.22;1.70;;;;;;;27.08;33.16;100617.16;5073113;28;20469;-63
2023/05/30 10:59:18;;;;;;;2.05;1.27;;;;;;;27.02;32.15;100623.69;5072842;28;20033;-61
2023/05/30 11:02:01;;;;;;;1.75;1.45;;;;;;;26.45;33.09;100624.69;5073049;28;20032;-62
2023/05/30 11:04:32;;;;;;;3.42;1.70;;;;;;;26.64;33.79;100620.38;5073110;28;20040;-60
2023/05/30 11:06:58;;;;;;;2.00;1.48;;;;;;;26.98;33.09;100617.13;5072961;28;20041;-59
2023/05/30 11:09:23;;;;;;;2.80;1.50;;;;;;;27.54;33.17;100614.38;5072788;28;20063;-62
2023/05/30 11:11:56;;;;;;;3.53;1.63;;;;;;;27.52;31.83;100600.16;5072930;28;20066;-60
2023/05/30 11:14:33;;;;;;;4.28;1.75;;;;;;;27.64;31.24;100606.13;5072942;28;20036;-63
2023/05/30 11:17:05;;;;;;;1.88;1.60;;;;;;;27.89;31.06;100607.16;5072887;28;20032;-59
2023/05/30 11:19:39;;;;;;;2.75;1.80;;;;;;;27.90;31.26;100606.06;5072691;28;20575;-61
2023/05/30 11:22:13;;;;;;;2.63;1.70;;;;;;;28.11;30.91;100602.16;5072657;28;20058;-62
2023/05/30 11:24:43;;;;;;;4.40;1.90;;;;;;;27.69;30.84;100594.38;5072736;28;20063;-61
2023/05/30 11:27:12;;;;;;;2.85;1.73;;;;;;;27.51;31.14;100590.28;5072762;28;20036;-63
2023/05/30 11:29:40;;;;;;;4.63;1.52;;;;;;;27.21;31.22;100602.13;5072246;28;20064;-61
2023/05/30 11:32:07;;;;;;;2.75;1.60;;;;;;;27.71;31.34;100594.91;5072189;28;20028;-63
2023/05/30 11:34:35;;;;;;;1.77;1.25;;;;;;;28.45;30.47;100587.75;5072593;28;20075;-63
2023/05/30 11:37:02;;;;;;;3.17;1.75;;;;;;;28.91;29.93;100591.81;5072340;28;20043;-59
2023/05/30 11:39:31;;;;;;;3.92;1.90;;;;;;;28.00;30.77;100584.94;5072168;28;20102;-60
2023/05/30 11:41:57;;;;;;;2.63;1.75;;;;;;;29.14;29.76;100592.16;5072349;28;20032;-62
2023/05/30 11:44:22;;;;;;;3.70;1.63;;;;;;;28.43;29.20;100592.69;5072327;28;20094;-62
2023/05/30 11:47:09;;;;;;;3.13;1.73;;;;;;;28.15;29.98;100592.25;5072242;28;20478;-61
2023/05/30 11:49:35;;;;;;;3.83;1.70;;;;;;;28.78;29.20;100589.72;5072023;28;20032;-62
2023/05/30 11:52:01;;;;;;;4.10;1.92;;;;;;;29.00;28.95;100572.00;5072127;28;20028;-63
2023/05/30 11:54:27;;;;;;;2.75;1.92;;;;;;;29.45;28.52;100589.94;5072330;28;20036;-64
2023/05/30 11:56:55;;;;;;;3.05;1.42;;;;;;;29.08;29.38;100577.69;5072265;28;20456;-62
2023/05/30 11:59:22;;;;;;;2.00;1.52;;;;;;;29.72;27.78;100575.66;5071896;28;20039;-62
2023/05/30 12:01:54;;;;;;;;;;;;;;;29.52;28.22;100576.72;5072491;28;20033;-62
2023/05/30 12:04:21;;;;;;;3.08;1.55;;;;;;;29.73;28.68;100569.06;5071534;28;19917;-62
2023/05/30 12:06:46;;;;;;;;;;;;;;;29.05;28.71;100572.78;5072693;28;20041;-62
2023/05/30 12:09:12;;;;;;;2.53;1.70;;;;;;;29.18;28.68;100563.88;5072032;28;20350;-59
2023/05/30 12:11:37;;;;;;;3.28;1.73;;;;;;;29.32;29.05;100565.94;5072225;28;20036;-62
2023/05/30 12:14:03;;;;;;;2.15;1.33;;;;;;;29.30;28.56;100563.50;5072225;28;20033;-61
2023/05/30 12:16:29;;;;;;;2.65;1.52;;;;;;;29.59;28.30;100568.13;5071884;28;20040;-62
2023/05/30 12:18:57;;;;;;;3.75;1.80;;;;;;;29.39;28.50;100566.41;5063054;28;20712;-61
2023/05/30 12:21:23;;;;;;;2.20;1.40;;;;;;;30.15;27.52;100568.28;5047637;28;20482;-60
2023/05/30 12:23:48;;;;;;;2.95;1.58;;;;;;;30.11;27.68;100566.41;5050697;28;20079;-60
2023/05/30 12:26:17;;;;;;;4.38;1.70;;;;;;;30.30;27.38;100555.44;5051730;28;20083;-63
2023/05/30 12:28:46;;;;;;;3.90;1.80;;;;;;;30.12;27.18;100566.09;5051651;28;20159;-62
2023/05/30 12:31:23;;;;;;;3.72;1.92;;;;;;;30.51;27.26;100565.81;5051685;28;20044;-63
2023/05/30 12:33:48;;;;;;;4.13;1.80;;;;;;;30.73;26.10;100561.69;5051824;28;20115;-61
2023/05/30 12:36:14;;;;;;;2.95;1.67;;;;;;;29.48;27.20;100545.47;5051789;28;20393;-59
2023/05/30 12:38:39;;;;;;;4.80;1.75;;;;;;;29.95;27.12;100554.81;5051498;28;20041;-63
2023/05/30 12:41:05;;;;;;;3.53;1.50;;;;;;;29.75;27.58;100546.84;5051717;28;20032;-61
2023/05/30 12:43:31;;;;;;;3.33;1.70;;;;;;;29.91;27.81;100556.50;5054250;28;20075;-62
2023/05/30 12:46:08;;;;;;;3.17;1.70;;;;;;;29.43;27.12;100540.84;5054351;28;20306;-62
2023/05/30 12:48:34;;;;;;;2.78;1.77;;;;;;;30.06;27.69;100552.72;5055398;28;20063;-61
2023/05/30 12:51:00;;;;;;;2.72;1.77;;;;;;;30.31;26.88;100549.63;5055614;28;20478;-65
2023/05/30 12:53:26;;;;;;;3.07;1.73;;;;;;;30.35;25.98;100549.88;5055513;28;20041;-65
2023/05/30 12:55:51;;;;;;;3.50;1.47;;;;;;;29.72;26.68;100550.97;5055488;28;20041;-64
2023/05/30 12:58:17;;;;;;;2.83;1.60;;;;;;;30.29;26.46;100548.31;5055150;28;20528;-63
2023/05/30 13:00:42;;;;;;;3.80;1.80;;;;;;;30.49;25.56;100551.56;5055515;28;20064;-63
2023/05/30 13:03:08;;;;;;;3.78;2.05;;;;;;;30.22;26.17;100563.22;5055501;28;20040;-64
2023/05/30 13:05:33;;;;;;;1.95;1.20;;;;;;;30.62;25.42;100546.41;5055352;28;20032;-62
2023/05/30 13:07:58;;;;;;;3.42;1.23;;;;;;;30.54;25.13;100546.00;5055387;28;20427;-63
2023/05/30 13:10:24;;;;;;;2.80;1.50;;;;;;;29.81;27.04;100543.72;5054974;28;20033;-65
2023/05/30 13:12:49;;;;;;;3.42;1.63;;;;;;;30.05;26.32;100551.09;5055293;28;20081;-63
2023/05/30 13:15:15;;;;;;;2.00;1.38;;;;;;;29.08;27.31;100539.31;5055184;28;20044;-61
2023/05/30 13:17:40;;;;;;;2.83;1.52;;;;;;;29.02;26.85;100536.91;5055245;28;20045;-63
2023/05/30 13:20:06;;;;;;;2.53;1.50;;;;;;;28.29;27.60;100534.94;5054795;28;20079;-62
2023/05/30 13:22:32;;;;;;;3.33;1.58;;;;;;;26.84;29.38;100534.03;5071228;28;20107;-60
2023/05/30 13:24:58;;;;;;;2.63;1.30;;;;;;;27.22;29.68;100529.94;5075173;28;20032;-62
2023/05/30 13:27:24;;;;;;;14.40;3.40;;;;;;;26.95;29.61;100522.84;5074954;28;20050;-62
2023/05/30 13:29:50;;;;;;;2.55;1.25;;;;;;;27.14;29.23;100522.28;5074604;28;20051;-61
2023/05/30 13:32:15;;;;;;;1.83;1.40;;;;;;;26.85;31.47;100519.28;5074792;28;20036;-62
2023/05/30 13:34:41;;;;;;;4.97;1.75;;;;;;;26.84;30.68;100523.13;5073679;28;20047;-64
2023/05/30 13:37:06;;;;;;;3.45;1.63;;;;;;;26.88;29.57;100524.22;5074782;28;20111;-59
2023/05/30 13:39:32;;;;;;;2.85;1.90;;;;;;;26.66;29.55;100517.09;5074516;28;20033;-61
2023/05/30 13:41:57;;;;;;;2.92;1.70;;;;;;;26.73;30.05;100525.00;5074672;28;20536;-63
2023/05/30 13:44:22;;;;;;;2.63;1.50;;;;;;;25.90;30.22;100525.16;5074676;28;20033;-61
2023/05/30 13:46:48;;;;;;;3.08;1.40;;;;;;;26.33;30.75;100525.78;5074646;28;20420;-61
2023/05/30 13:49:13;;;;;;;1.92;1.23;;;;;;;26.46;30.41;100522.56;5074357;28;20123;-63
2023/05/30 13:51:39;;;;;;;2.88;1.85;;;;;;;25.95;30.28;100527.88;5074511;28;20095;-60
2023/05/30 13:54:05;;;;;;;2.67;1.55;;;;;;;26.12;31.22;100533.94;5074012;28;20040;-61
2023/05/30 13:56:30;;;;;;;5.20;1.50;;;;;;;25.69;31.20;100538.69;5074375;28;20051;-62
2023/05/30 13:58:56;;;;;;;5.93;1.73;;;;;;;25.74;30.79;100528.91;5074300;28;20045;-60
2023/05/30 14:01:25;;;;;;;5.07;2.05;;;;;;;25.86;30.49;100527.59;5074282;28;20043;-61
2023/05/30 14:03:50;;;;;;;4.00;1.40;;;;;;;25.78;30.80;100524.56;5074349;28;20512;-59
2023/05/30 14:06:16;;;;;;;2.25;1.52;;;;;;;25.76;29.75;100532.19;5074178;28;20111;-61
2023/05/30 14:08:41;;;;;;;4.63;1.75;;;;;;;25.19;30.39;100513.88;5073991;28;20481;-63
2023/05/30 14:11:07;;;;;;;2.90;1.05;;;;;;;24.90;31.10;100511.47;5073998;28;20033;-63
2023/05/30 14:13:33;;;;;;;2.45;1.30;;;;;;;25.20;31.58;100518.25;5074148;28;20058;-63
2023/05/30 14:15:58;;;;;;;1.95;1.40;;;;;;;25.46;31.54;100520.03;5074008;28;20039;-63
2023/05/30 14:18:24;;;;;;;2.10;1.45;;;;;;;25.26;31.03;100512.56;5073791;28;20043;-63
2023/05/30 14:20:50;;;;;;;2.30;1.52;;;;;;;24.83;31.60;100516.31;5073958;28;20119;-61
2023/05/30 14:23:16;;;;;;;3.47;1.38;;;;;;;25.19;31.36;100522.88;5073925;28;20044;-61
2023/05/30 14:25:41;;;;;;;1.40;1.30;;;;;;;24.67;31.57;100517.28;5072536;28;20040;-63
2023/05/30 14:28:06;;;;;;;1.70;1.38;;;;;;;24.64;31.97;100516.72;5073703;28;20047;-60
2023/05/30 14:30:32;;;;;;;2.20;1.40;;;;;;;24.91;31.92;100513.13;5073532;28;20032;-62
2023/05/30 14:32:59;;;;;;;3.00;1.83;;;;;;;24.88;31.51;100511.72;5073711;28;20066;-64
2023/05/30 14:35:27;;;;;;;4.63;1.60;;;;;;;24.66;31.30;100505.59;5073732;28;20138;-60
2023/05/30 14:37:52;;;;;;;4.40;1.40;;;;;;;24.81;31.61;100513.03;5073610;28;20401;-63
2023/05/30 14:40:17;;;;;;;5.78;1.33;;;;;;;24.86;31.63;100504.91;5073206;28;20024;-63
2023/05/30 14:42:43;;;;;;;4.38;1.60;;;;;;;24.92;31.67;100511.22;5072211;28;20048;-62
2023/05/30 14:45:09;;;;;;;2.40;1.60;;;;;;;24.87;31.75;100506.56;5073376;28;20045;-62
2023/05/30 14:47:35;;;;;;;3.03;1.67;;;;;;;24.99;30.46;100507.19;5073202;28;20131;-62
2023/05/30 14:50:03;;;;;;;2.47;1.35;;;;;;;24.70;30.82;100511.31;5073094;28;20128;-60
2023/05/30 14:52:28;;;;;;;;;;;;;;;24.62;31.03;100509.91;5073698;28;20435;-63
2023/05/30 14:54:54;;;;;;;1.90;1.30;;;;;;;24.74;30.72;100509.72;5073235;28;20011;-64
2023/05/30 14:57:19;;;;;;;2.85;1.50;;;;;;;24.77;31.25;100511.91;5073307;28;20037;-61
2023/05/30 14:59:45;;;;;;;2.95;1.40;;;;;;;24.84;31.35;100518.81;5072803;28;20163;-61
2023/05/30 15:02:10;;;;;;;3.25;1.30;;;;;;;24.81;30.48;100513.88;5073046;28;20393;-63
2023/05/30 15:04:36;;;;;;;1.80;1.17;;;;;;;24.77;31.48;100512.72;5072770;28;20043;-61
2023/05/30 15:07:02;;;;;;;2.40;1.42;;;;;;;24.85;31.25;100515.00;5072421;28;20041;-62
2023/05/30 15:09:27;;;;;;;1.70;1.33;;;;;;;24.85;30.65;100511.44;5072474;28;20048;-61
2023/05/30 15:11:52;;;;;;;2.55;1.30;;;;;;;24.75;30.77;100508.63;5072873;28;20033;-62
2023/05/30 15:14:18;;;;;;;2.35;1.50;;;;;;;24.68;29.91;100516.22;5072757;28;20036;-63
2023/05/30 15:16:43;;;;;;;3.60;1.50;;;;;;;24.69;30.63;100517.84;5072625;28;20048;-61
2023/05/30 15:19:09;;;;;;;4.18;1.83;;;;;;;24.61;30.55;100509.06;5072460;28;20075;-60
2023/05/30 15:21:34;;;;;;;3.58;1.50;;;;;;;24.30;30.90;100512.56;5072577;28;20192;-61
2023/05/30 15:24:00;;;;;;;3.03;1.65;;;;;;;24.55;31.17;100510.09;5071244;28;20043;-61
2023/05/30 15:26:27;;;;;;;2.63;1.40;;;;;;;24.49;30.28;100502.97;5072414;28;20032;-62
2023/05/30 15:28:53;;;;;;;2.53;1.38;;;;;;;24.55;29.87;100506.56;5072309;28;20111;-60
2023/05/30 15:31:19;;;;;;;7.40;3.42;;;;;;;24.44;30.40;100497.47;5072311;28;20043;-60
2023/05/30 15:33:48;;;;;;;7.30;4.10;;;;;;;24.46;30.82;100500.78;5072527;28;20033;-61
2023/05/30 15:36:14;;;;;;;2.78;1.40;;;;;;;24.39;30.11;100497.47;5072419;28;20070;-62
2023/05/30 15:38:39;;;;;;;2.50;1.30;;;;;;;24.50;29.34;100499.16;5072051;28;20119;-60
2023/05/30 15:41:06;;;;;;;2.72;1.40;;;;;;;24.39;29.82;100499.34;5072402;28;20658;-60
2023/05/30 15:43:31;;;;;;;1.67;1.23;;;;;;;24.38;30.07;100498.50;5072345;28;20036;-61
2023/05/30 15:45:56;;;;;;;3.47;1.55;;;;;;;24.43;29.46;100500.47;5072192;28;20123;-63
2023/05/30 15:48:22;;;;;;;3.10;1.40;;;;;;;24.47;29.20;100493.44;5071993;28;20094;-61